createdAt,value
2022-11-13T00:00:34.030Z,77.54
2022-11-13T00:03:38.175Z,77.48
2022-11-13T00:06:42.436Z,77.69
2022-11-13T00:09:46.573Z,77.43
2022-11-13T00:12:50.825Z,77.16
2022-11-13T00:16:02.537Z,77.71
2022-11-13T00:19:07.042Z,77.47
2022-11-13T00:22:11.332Z,77.61
2022-11-13T00:25:15.970Z,77.25
2022-11-13T00:28:20.329Z,77.71
2022-11-13T00:31:24.773Z,77.79
2022-11-13T00:37:52.781Z,77.68
2022-11-13T00:40:57.132Z,77.30
2022-11-13T00:44:01.802Z,77.44
2022-11-13T00:47:06.784Z,77.40
2022-11-13T00:50:10.970Z,77.00
2022-11-13T00:53:18.070Z,77.14
2022-11-13T00:56:22.518Z,77.22
2022-11-13T00:59:26.759Z,77.08
2022-11-13T01:02:31.335Z,77.32
2022-11-13T01:05:40.229Z,77.89
2022-11-13T01:08:45.144Z,78.19
2022-11-13T01:11:49.228Z,78.59
2022-11-13T01:14:53.434Z,79.03
2022-11-13T01:17:57.680Z,79.00
2022-11-13T01:21:13.130Z,79.74
2022-11-13T01:24:17.351Z,80.09
2022-11-13T01:27:21.816Z,79.75
2022-11-13T01:30:26.200Z,79.61
2022-11-13T01:33:30.434Z,79.32
2022-11-13T01:36:34.863Z,79.83
2022-11-13T01:39:39.186Z,79.88
2022-11-13T01:42:43.460Z,80.14
2022-11-13T01:46:13.529Z,79.49
2022-11-13T01:49:38.528Z,78.83
2022-11-13T01:52:42.979Z,77.50
2022-11-13T01:55:47.766Z,77.43
2022-11-13T01:58:58.869Z,77.29
2022-11-13T02:02:04.723Z,76.96
2022-11-13T02:05:09.299Z,76.93
2022-11-13T02:08:13.585Z,77.29
2022-11-13T02:11:19.939Z,78.14
2022-11-13T02:14:27.859Z,78.10
2022-11-13T02:17:53.832Z,79.08
2022-11-13T02:21:05.319Z,79.56
2022-11-13T02:24:25.171Z,79.59
2022-11-13T02:27:42.557Z,79.95
2022-11-13T02:30:47.718Z,79.98
2022-11-13T02:33:53.046Z,79.64
2022-11-13T02:36:58.000Z,79.95
2022-11-13T02:40:03.470Z,78.89
2022-11-13T02:43:08.470Z,78.99
2022-11-13T02:46:13.610Z,78.88
2022-11-13T02:49:18.395Z,78.88
2022-11-13T02:52:22.765Z,78.88
2022-11-13T02:55:27.117Z,78.97
2022-11-13T02:58:32.223Z,79.00
2022-11-13T03:01:37.205Z,78.95
2022-11-13T03:05:10.355Z,78.80
2022-11-13T03:08:07.442Z,79.24
2022-11-13T03:11:13.105Z,79.50
2022-11-13T03:14:18.125Z,79.44
2022-11-13T03:17:22.745Z,79.57
2022-11-13T03:20:27.767Z,79.82
2022-11-13T03:23:32.074Z,79.18
2022-11-13T03:26:36.902Z,78.28
2022-11-13T03:29:41.081Z,78.09
2022-11-13T03:32:45.746Z,77.83
2022-11-13T03:35:50.228Z,77.53
2022-11-13T03:38:55.413Z,77.48
2022-11-13T03:41:59.722Z,77.87
2022-11-13T03:45:06.488Z,77.91
2022-11-13T03:48:11.117Z,78.08
2022-11-13T03:51:15.076Z,77.83
2022-11-13T03:54:19.847Z,77.80
2022-11-13T03:57:24.984Z,78.29
2022-11-13T04:00:30.374Z,78.07
2022-11-13T04:03:35.692Z,78.12
2022-11-13T04:06:40.526Z,78.68
2022-11-13T04:09:45.692Z,78.76
2022-11-13T04:12:50.073Z,78.66
2022-11-13T04:15:54.451Z,78.77
2022-11-13T04:18:59.232Z,78.68
2022-11-13T04:22:03.539Z,78.56
2022-11-13T04:25:08.864Z,78.81
2022-11-13T04:28:15.887Z,78.90
2022-11-13T04:31:20.367Z,78.21
2022-11-13T04:34:24.974Z,78.28
2022-11-13T04:37:29.036Z,78.21
2022-11-13T04:40:33.396Z,78.32
2022-11-13T04:43:37.511Z,77.97
2022-11-13T04:46:43.031Z,78.27
2022-11-13T04:49:46.782Z,78.17
2022-11-13T04:52:50.942Z,77.61
2022-11-13T04:55:55.592Z,78.18
2022-11-13T04:58:59.907Z,77.99
2022-11-13T05:02:05.026Z,77.98
2022-11-13T05:05:10.632Z,77.48
2022-11-13T05:08:15.218Z,77.33
2022-11-13T05:11:19.996Z,77.03
2022-11-13T05:14:24.903Z,76.79
2022-11-13T05:17:30.286Z,77.12
2022-11-13T05:20:35.588Z,77.52
2022-11-13T05:23:40.766Z,76.91
2022-11-13T05:26:44.957Z,77.06
2022-11-13T05:29:49.341Z,77.52
2022-11-13T05:32:54.114Z,77.49
2022-11-13T05:36:09.552Z,77.30
2022-11-13T05:39:13.641Z,77.77
2022-11-13T05:42:17.971Z,76.98
2022-11-13T05:45:23.163Z,77.56
2022-11-13T05:48:27.927Z,77.57
2022-11-13T05:51:34.166Z,77.94
2022-11-13T05:54:38.768Z,77.93
2022-11-13T05:57:42.982Z,78.25
2022-11-13T06:00:47.550Z,77.82
2022-11-13T06:03:52.734Z,78.59
2022-11-13T06:06:57.287Z,78.98
2022-11-13T06:10:01.603Z,78.94
2022-11-13T06:13:05.890Z,79.47
2022-11-13T06:16:12.780Z,80.42
2022-11-13T06:19:18.213Z,80.35
2022-11-13T06:22:22.448Z,80.80
2022-11-13T06:25:28.282Z,81.83
2022-11-13T06:28:33.700Z,81.68
2022-11-13T06:31:38.613Z,82.07
2022-11-13T06:34:42.819Z,83.18
2022-11-13T06:37:47.950Z,83.25
2022-11-13T06:40:52.169Z,83.09
2022-11-13T06:44:02.642Z,83.48
2022-11-13T06:47:07.540Z,83.33
2022-11-13T06:50:11.856Z,83.41
2022-11-13T06:53:16.859Z,83.67
2022-11-13T06:56:22.209Z,83.70
2022-11-13T06:59:26.580Z,83.52
2022-11-13T07:02:32.836Z,83.52
2022-11-13T07:05:37.616Z,83.80
2022-11-13T07:08:43.428Z,83.73
2022-11-13T07:11:48.097Z,84.23
2022-11-13T07:14:53.079Z,84.16
2022-11-13T07:18:00.635Z,84.13
2022-11-13T07:21:07.596Z,84.04
2022-11-13T07:24:16.703Z,84.07
2022-11-13T07:27:23.294Z,84.36
2022-11-13T07:30:28.473Z,84.74
2022-11-13T07:33:37.473Z,85.12
2022-11-13T07:36:41.645Z,85.59
2022-11-13T07:39:47.116Z,85.50
2022-11-13T07:43:02.797Z,85.88
2022-11-13T07:46:07.195Z,85.74
2022-11-13T07:49:11.429Z,85.84
2022-11-13T07:52:16.168Z,86.58
2022-11-13T07:55:21.042Z,86.56
2022-11-13T07:58:26.301Z,86.90
2022-11-13T08:01:31.024Z,86.95
2022-11-13T08:04:35.562Z,87.08
2022-11-13T08:07:40.583Z,87.08
2022-11-13T08:10:48.121Z,86.94
2022-11-13T08:13:52.873Z,87.16
2022-11-13T08:16:57.837Z,86.99
2022-11-13T08:20:03.882Z,87.13
2022-11-13T08:23:09.056Z,87.08
2022-11-13T08:26:14.024Z,86.19
2022-11-13T08:29:18.270Z,86.77
2022-11-13T08:32:22.663Z,86.71
2022-11-13T08:35:29.572Z,86.92
2022-11-13T08:38:33.943Z,87.44
2022-11-13T08:41:38.286Z,87.50
2022-11-13T08:44:42.657Z,87.38
2022-11-13T08:47:46.910Z,87.58
2022-11-13T08:50:55.333Z,87.68
2022-11-13T08:53:59.559Z,87.90
2022-11-13T08:57:06.097Z,86.83
2022-11-13T09:00:12.001Z,86.71
2022-11-13T09:03:16.440Z,86.31
2022-11-13T09:06:20.756Z,86.43
2022-11-13T09:09:25.515Z,86.62
2022-11-13T09:12:31.084Z,86.21
2022-11-13T09:15:38.764Z,86.51
2022-11-13T09:18:43.496Z,86.64
2022-11-13T09:21:48.256Z,86.21
2022-11-13T09:24:55.484Z,86.35
2022-11-13T09:28:01.789Z,86.46
2022-11-13T09:31:07.145Z,86.05
2022-11-13T09:34:12.198Z,86.13
2022-11-13T09:37:17.183Z,85.70
2022-11-13T09:40:29.466Z,85.53
2022-11-13T09:43:36.437Z,85.06
2022-11-13T09:46:53.278Z,84.93
2022-11-13T09:50:20.706Z,84.72
2022-11-13T09:53:27.501Z,85.04
2022-11-13T09:56:41.651Z,85.00
2022-11-13T10:00:13.383Z,84.81
2022-11-13T10:04:00.045Z,84.34
2022-11-13T10:07:38.096Z,84.38
2022-11-13T10:10:54.816Z,84.88
2022-11-13T10:14:09.758Z,84.86
2022-11-13T10:17:38.636Z,85.01
2022-11-13T10:21:08.262Z,84.82
2022-11-13T10:24:39.271Z,84.67
2022-11-13T10:27:49.351Z,85.48
2022-11-13T10:30:53.519Z,85.39
2022-11-13T10:33:59.324Z,85.11
2022-11-13T10:37:27.255Z,85.60
2022-11-13T10:40:37.591Z,85.18
2022-11-13T10:44:02.683Z,85.22
2022-11-13T10:47:26.444Z,84.82
2022-11-13T10:50:36.340Z,85.14
2022-11-13T10:53:42.682Z,85.42
2022-11-13T10:57:00.917Z,84.91
2022-11-13T11:00:30.273Z,85.65
2022-11-13T11:03:34.792Z,85.18
2022-11-13T11:07:17.760Z,84.90
2022-11-13T11:10:21.710Z,84.37
2022-11-13T11:13:27.952Z,84.49
2022-11-13T11:16:32.988Z,84.63
2022-11-13T11:19:39.166Z,84.25
2022-11-13T11:22:45.882Z,84.24
2022-11-13T11:26:01.590Z,83.90
2022-11-13T11:29:32.117Z,83.32
2022-11-13T11:32:54.530Z,82.86
2022-11-13T11:36:22.854Z,83.07
2022-11-13T11:39:50.483Z,83.18
2022-11-13T11:43:12.857Z,83.30
2022-11-13T11:46:23.500Z,82.74
2022-11-13T11:49:28.209Z,82.32
2022-11-13T11:52:48.271Z,82.03
2022-11-13T11:56:19.233Z,81.38
2022-11-13T11:59:34.269Z,81.85
2022-11-13T12:03:09.704Z,81.18
2022-11-13T12:07:11.833Z,82.10
2022-11-13T12:10:46.452Z,82.02
2022-11-13T12:14:04.902Z,81.84
2022-11-13T12:17:28.008Z,81.69
2022-11-13T12:20:48.442Z,81.78
2022-11-13T12:24:11.359Z,81.81
2022-11-13T12:27:18.651Z,81.76
2022-11-13T12:30:49.807Z,81.45
2022-11-13T12:34:27.134Z,81.55
2022-11-13T12:37:43.631Z,81.78
2022-11-13T12:41:17.653Z,82.20
2022-11-13T12:44:26.174Z,81.81
2022-11-13T12:47:30.632Z,81.46
2022-11-13T12:50:35.522Z,81.15
2022-11-13T12:53:51.822Z,81.22
2022-11-13T12:57:19.275Z,80.90
2022-11-13T13:00:30.432Z,80.56
2022-11-13T13:03:40.874Z,80.71
2022-11-13T13:07:34.003Z,80.93
2022-11-13T13:10:44.301Z,80.83
2022-11-13T13:14:15.946Z,81.01
2022-11-13T13:17:22.974Z,81.13
2022-11-13T13:21:10.411Z,81.29
2022-11-13T13:24:36.013Z,80.25
2022-11-13T13:27:40.158Z,80.47
2022-11-13T13:31:01.054Z,80.38
2022-11-13T13:34:36.520Z,80.22
2022-11-13T13:37:54.743Z,79.81
2022-11-13T13:41:09.720Z,80.12
2022-11-13T13:44:36.692Z,79.96
2022-11-13T13:47:46.193Z,79.57
2022-11-13T13:50:52.061Z,79.35
2022-11-13T13:54:00.373Z,80.17
2022-11-13T13:57:04.691Z,80.39
2022-11-13T14:00:13.844Z,80.11
2022-11-13T14:03:21.383Z,80.83
2022-11-13T14:06:25.362Z,80.35
2022-11-13T14:09:30.790Z,80.45
2022-11-13T14:12:35.463Z,80.17
2022-11-13T14:15:39.839Z,80.65
2022-11-13T14:18:44.276Z,79.97
2022-11-13T14:21:57.617Z,79.60
2022-11-13T14:25:02.696Z,80.15
2022-11-13T14:28:14.991Z,79.92
2022-11-13T14:31:24.852Z,79.71
2022-11-13T14:34:31.310Z,79.77
2022-11-13T14:37:38.120Z,79.17
2022-11-13T14:40:48.025Z,79.43
2022-11-13T14:43:52.382Z,79.19
2022-11-13T14:47:31.854Z,78.81
2022-11-13T14:50:37.169Z,78.16
2022-11-13T14:53:42.465Z,78.67
2022-11-13T14:56:46.661Z,78.28
2022-11-13T14:59:51.159Z,78.22
2022-11-13T15:02:56.161Z,78.32
2022-11-13T15:06:01.558Z,77.43
2022-11-13T15:09:14.823Z,77.63
2022-11-13T15:12:19.111Z,77.72
2022-11-13T15:15:28.289Z,77.99
2022-11-13T15:18:32.563Z,77.99
2022-11-13T15:21:37.104Z,77.91
2022-11-13T15:24:41.656Z,77.75
2022-11-13T15:27:46.292Z,77.67
2022-11-13T15:30:50.557Z,77.99
2022-11-13T15:33:55.193Z,77.88
2022-11-13T15:36:59.431Z,77.86
2022-11-13T15:40:04.923Z,78.41
2022-11-13T15:43:16.612Z,78.48
2022-11-13T15:46:23.427Z,78.85
2022-11-13T15:49:34.651Z,78.49
2022-11-13T15:52:58.809Z,78.60
2022-11-13T15:56:12.916Z,79.09
2022-11-13T15:59:17.510Z,78.92
2022-11-13T16:02:22.873Z,78.95
2022-11-13T16:05:29.405Z,78.71
2022-11-13T16:08:36.731Z,78.82
2022-11-13T16:11:51.359Z,78.77
2022-11-13T16:14:55.691Z,78.29
2022-11-13T16:18:01.807Z,78.27
2022-11-13T16:21:07.127Z,78.40
2022-11-13T16:24:11.871Z,78.42
2022-11-13T16:27:31.244Z,78.34
2022-11-13T16:30:37.321Z,78.54
2022-11-13T16:33:43.097Z,78.27
2022-11-13T16:36:47.717Z,78.51
2022-11-13T16:39:53.445Z,78.80
2022-11-13T16:42:58.501Z,78.04
2022-11-13T16:46:11.350Z,78.07
2022-11-13T16:49:19.100Z,77.76
2022-11-13T16:52:23.333Z,78.75
2022-11-13T16:55:27.513Z,78.86
2022-11-13T16:58:31.423Z,78.60
2022-11-13T17:01:35.865Z,78.41
2022-11-13T17:04:40.229Z,78.24
2022-11-13T17:07:45.044Z,78.03
2022-11-13T17:10:58.813Z,78.44
2022-11-13T17:14:03.615Z,78.36
2022-11-13T17:17:14.489Z,78.46
2022-11-13T17:20:19.483Z,78.47
2022-11-13T17:23:23.645Z,77.95
2022-11-13T17:26:28.814Z,77.65
2022-11-13T17:29:36.874Z,77.66
2022-11-13T17:32:43.414Z,77.83
2022-11-13T17:35:57.323Z,77.42
2022-11-13T17:39:10.325Z,77.87
2022-11-13T17:42:29.305Z,77.71
2022-11-13T17:45:39.530Z,77.37
2022-11-13T17:48:51.544Z,77.45
2022-11-13T17:52:17.033Z,77.49
2022-11-13T17:55:30.732Z,77.31
2022-11-13T17:58:51.242Z,76.91
2022-11-13T18:01:55.487Z,77.23
2022-11-13T18:05:01.417Z,77.62
2022-11-13T18:08:06.303Z,77.79
2022-11-13T18:11:22.395Z,77.91
2022-11-13T18:14:26.568Z,77.31
2022-11-13T18:17:30.836Z,77.52
2022-11-13T18:20:38.534Z,77.34
2022-11-13T18:23:43.890Z,76.97
2022-11-13T18:26:48.595Z,77.59
2022-11-13T18:29:53.083Z,77.45
2022-11-13T18:33:00.482Z,77.69
2022-11-13T18:36:06.907Z,77.59
2022-11-13T18:39:16.384Z,77.29
2022-11-13T18:42:21.837Z,77.31
2022-11-13T18:45:27.144Z,77.13
2022-11-13T18:48:34.938Z,77.07
2022-11-13T18:51:41.305Z,77.19
2022-11-13T18:54:46.448Z,76.88
2022-11-13T18:57:52.154Z,76.60
2022-11-13T19:00:56.976Z,76.86
2022-11-13T19:07:30.341Z,77.46
2022-11-13T19:10:36.688Z,77.28
2022-11-13T19:13:44.170Z,77.89
2022-11-13T19:16:51.090Z,77.56
2022-11-13T19:19:55.692Z,77.35
2022-11-13T19:23:07.929Z,77.69
2022-11-13T19:26:13.667Z,77.70
2022-11-13T19:29:18.254Z,77.66
2022-11-13T19:32:22.226Z,77.25
2022-11-13T19:35:26.895Z,77.72
2022-11-13T19:38:31.648Z,77.68
2022-11-13T19:41:36.445Z,76.67
2022-11-13T19:44:40.825Z,77.12
2022-11-13T19:47:44.832Z,77.17
2022-11-13T19:50:49.223Z,77.49
2022-11-13T19:53:58.590Z,77.12
2022-11-13T19:57:03.324Z,77.56
2022-11-13T20:00:08.592Z,77.50
2022-11-13T20:03:13.312Z,78.04
2022-11-13T20:06:22.209Z,77.66
2022-11-13T20:09:35.394Z,78.37
2022-11-13T20:12:50.491Z,78.38
2022-11-13T20:15:56.132Z,78.39
2022-11-13T20:19:01.529Z,78.25
2022-11-13T20:22:06.591Z,78.12
2022-11-13T20:25:11.663Z,77.78
2022-11-13T20:28:16.022Z,77.55
2022-11-13T20:31:36.995Z,77.46
2022-11-13T20:39:28.240Z,77.74
2022-11-13T20:42:32.914Z,77.62
2022-11-13T20:45:37.431Z,77.74
2022-11-13T20:48:42.205Z,77.69
2022-11-13T20:51:55.952Z,78.28
2022-11-13T20:55:47.498Z,78.10
2022-11-13T20:59:11.552Z,78.36
2022-11-13T21:02:32.435Z,77.88
2022-11-13T21:05:36.500Z,78.26
2022-11-13T21:08:41.027Z,78.05
2022-11-13T21:11:45.235Z,77.96
2022-11-13T21:14:52.185Z,78.07
2022-11-13T21:18:00.050Z,78.08
2022-11-13T21:21:11.670Z,77.90
2022-11-13T21:24:16.693Z,78.00
2022-11-13T21:27:21.052Z,77.84
2022-11-13T21:30:25.722Z,78.12
2022-11-13T21:33:35.754Z,77.96
2022-11-13T21:36:40.913Z,78.37
2022-11-13T21:39:45.203Z,78.42
2022-11-13T21:42:50.961Z,78.58
2022-11-13T21:46:05.920Z,78.97
2022-11-13T21:49:13.128Z,79.32
2022-11-13T21:52:18.729Z,79.47
2022-11-13T21:55:23.527Z,79.30
2022-11-13T21:58:36.441Z,79.24
2022-11-13T22:01:40.834Z,79.38
2022-11-13T22:04:45.392Z,79.38
2022-11-13T22:07:50.400Z,79.50
2022-11-13T22:10:55.256Z,79.15
2022-11-13T22:14:00.329Z,79.37
2022-11-13T22:17:04.892Z,79.11
2022-11-13T22:20:12.319Z,78.93
2022-11-13T22:23:18.141Z,79.30
2022-11-13T22:26:25.034Z,78.66
2022-11-13T22:29:29.595Z,78.81
2022-11-13T22:32:34.584Z,78.62
2022-11-13T22:35:39.568Z,79.05
2022-11-13T22:38:44.666Z,78.37
2022-11-13T22:41:50.473Z,78.95
2022-11-13T22:44:56.270Z,78.52
2022-11-13T22:48:00.852Z,78.83
2022-11-13T22:51:07.963Z,78.67
2022-11-13T22:54:12.943Z,78.45
2022-11-13T22:57:17.431Z,78.37
2022-11-13T23:00:21.755Z,78.87
2022-11-13T23:03:26.114Z,78.86
2022-11-13T23:06:34.146Z,78.99
2022-11-13T23:09:38.064Z,78.86
2022-11-13T23:12:42.963Z,78.44
2022-11-13T23:15:47.341Z,79.05
2022-11-13T23:18:53.439Z,79.00
2022-11-13T23:22:03.536Z,79.04
2022-11-13T23:25:14.246Z,79.21
2022-11-13T23:28:18.799Z,79.52
2022-11-13T23:31:23.487Z,79.09
2022-11-13T23:34:53.204Z,79.57
2022-11-13T23:37:52.305Z,79.36
2022-11-13T23:40:58.116Z,78.89
2022-11-13T23:44:08.887Z,79.28
2022-11-13T23:47:13.643Z,78.96
2022-11-13T23:50:18.331Z,78.98
2022-11-13T23:53:22.828Z,79.37
2022-11-13T23:56:27.148Z,79.34
2022-11-13T23:59:31.626Z,78.92
